Grete Maersk — OYCY2 — position and weather

sailwx.info

Track history (hours):
 
Tides and Currents Weather Stations Pressure Air Temp Water Temp Dewpoint Dewpoint Depression Visibility Wind Speed Wind Dir Waves Ship Positions

Grete Maersk

Last reported at 2015-Sep-01 23:31 UTC. Time now 2015-Sep-02 10:36 UTC.
Position N 22°05' E 114°18'.

MMSI: 218824136.

Date/timePositionNaut miles runAvg speedWind from/ knotsBaromVisibWave heightAir tempDewpointWater temp
2015-Sep-01 23:31N 22°05' E 114°18'0 0.1
2015-Sep-01 19:10N 22°05' E 114°18'0 0.2
2015-Sep-01 18:31N 22°05' E 114°18'0 0.0
2015-Sep-01 17:04N 22°05' E 114°18'0 0.0
2015-Sep-01 11:13N 22°05' E 114°18'3 0.3
2015-Sep-01 02:14N 22°05' E 114°20'2 0.7
2015-Aug-31 22:29N 22°05' E 114°18'0 0.0
2015-Aug-31 17:29N 22°05' E 114°18'1 0.5
2015-Aug-31 14:33N 22°06' E 114°16'7 7.1
2015-Aug-31 13:32N 22°10' E 114°10'0 0.0
2015-Aug-31 12:32N 22°10' E 114°10'0 0.1
2015-Aug-31 11:32N 22°10' E 114°10'14 1.1
2015-Aug-30 23:04N 22°09' E 114°25'612.1
2015-Aug-30 22:32N 22°10' E 114°31'  
2015-Aug-24 10:33N 35°28' E 121°34'  
Track history (hours):
 
Tides and Currents Weather Stations Pressure Air Temp Water Temp Dewpoint Dewpoint Depression Visibility Wind Speed Wind Dir Waves Ship Positions

Grete Maersk

Last reported at 2015-Sep-01 23:31 UTC. Time now 2015-Sep-02 10:36 UTC.
Position N 22°05' E 114°18'.

MMSI: 218824136.

Date/timePositionNaut miles runAvg speedWind from/ knotsBaromVisibWave heightAir tempDewpointWater temp
2015-Sep-01 23:31N 22°05' E 114°18'0 0.1
2015-Sep-01 19:10N 22°05' E 114°18'0 0.2
2015-Sep-01 18:31N 22°05' E 114°18'0 0.0
2015-Sep-01 17:04N 22°05' E 114°18'0 0.0
2015-Sep-01 11:13N 22°05' E 114°18'3 0.3
2015-Sep-01 02:14N 22°05' E 114°20'2 0.7
2015-Aug-31 22:29N 22°05' E 114°18'0 0.0
2015-Aug-31 17:29N 22°05' E 114°18'1 0.5
2015-Aug-31 14:33N 22°06' E 114°16'7 7.1
2015-Aug-31 13:32N 22°10' E 114°10'0 0.0
2015-Aug-31 12:32N 22°10' E 114°10'0 0.1
2015-Aug-31 11:32N 22°10' E 114°10'14 1.1
2015-Aug-30 23:04N 22°09' E 114°25'612.1
2015-Aug-30 22:32N 22°10' E 114°31'  
2015-Aug-24 10:33N 35°28' E 121°34'  

Dump ship's entire track history